Flight Track Log - Related Links

Times and Time Zones

All times are in EDT time to prevent confusion due to time zone crossing. See the UAL6183 flight status page for this flight to view local times or setup timezone preferences in your user account.

Time Position Orientation Groundspeed Altitude Reporting Facility
EDT Latitude Longitude Course Direction KTS MPH feet Rate Location/Type
Thu 01:42:10 PM 39.8333 -104.8000 161° South 207 238 7,600  Level Denver TRACON
Thu 01:43:16 PM 39.7833 -104.8667 226° Southwest 279 321 9,500 1,952 Climbing Denver TRACON
Thu 01:44:16 PM 39.7000 -104.9000 197° South 302 348 11,700 2,067 Climbing Denver TRACON
Thu 01:45:15 PM 39.6275 -104.9153 189° South 308 354 13,600 1,934 Climbing Denver Center
Thu 01:46:17 PM 39.5358 -104.8883 167° South 315 362 15,600 1,645 Climbing Denver Center
Thu 01:47:00 PM 39.3781 -104.4318 161° South  Level Estimated
Thu 01:47:19 PM 39.4464 -104.8614 167° South 330 380 17,000  Level Denver Center
Thu 01:48:21 PM 39.3456 -104.8308 167° South 344 396 18,300 1,258 Climbing Denver Center
Thu 01:49:23 PM 39.2461 -104.8006 167° South 369 425 19,600 1,258 Climbing Denver Center
Thu 01:50:25 PM 39.1597 -104.7733 166° South 377 434 20,900 1,403 Climbing Denver Center
Thu 01:51:27 PM 39.0428 -104.7419 168° South 376 433 22,500 1,016 Climbing Denver Center
Thu 01:52:29 PM 38.9264 -104.6917 161° South 395 455 23,000 242 Climbing Denver Center
Thu 01:53:31 PM 38.8236 -104.6433 160° South 403 464 23,000  Level Denver Center
Thu 01:54:33 PM 38.6964 -104.5906 162° South 420 483 23,000  Level Denver Center
Thu 01:55:35 PM 38.5858 -104.5467 163° South 429 494 23,000  Level Denver Center
Thu 01:56:37 PM 38.4544 -104.4936 162° South 438 504 23,000  Level Denver Center
Thu 01:57:39 PM 38.3411 -104.4478 162° South 442 509 23,000  Level Denver Center
Thu 01:58:41 PM 38.2200 -104.3669 152° Southeast 440 506 23,000  Level Denver Center
Thu 01:59:43 PM 38.1228 -104.2903 148° Southeast 429 494 23,000  Level Denver Center
Thu 02:00:46 PM 38.0156 -104.1878 143° Southeast 431 496 23,000  Level Denver Center
Thu 02:01:48 PM 37.9306 -104.0897 138° Southeast 429 494 23,000  Level Denver Center
Thu 02:02:50 PM 37.8314 -103.9744 137° Southeast 431 496 23,000  Level Denver Center
Thu 02:03:52 PM 37.7481 -103.8747 137° Southeast 428 493 23,000  Level Denver Center
Thu 02:04:54 PM 37.6558 -103.7839 142° Southeast 432 497 23,000  Level Denver Center
Thu 02:05:57 PM 37.5286 -103.7267 160° South 428 493 23,000  Level Denver Center
Thu 02:06:59 PM 37.4169 -103.6925 166° South 428 493 23,000  Level Denver Center
Thu 02:08:00 PM 37.3247 -103.6644 166° South 425 489 23,000  Level Denver Center
Thu 02:09:03 PM 37.1778 -103.6200 166° South 424 488 23,000  Level Denver Center
Thu 02:09:28 PM 37.1231 -103.6047 167° South 422 486 23,000  Level Albuquerque Center
Thu 02:10:30 PM 37.0136 -103.5717 166° South 421 484 23,000  Level Albuquerque Center
Thu 02:11:32 PM 36.9042 -103.5394 167° South 421 484 23,000  Level Albuquerque Center
Thu 02:12:33 PM 36.7761 -103.5008 166° South 422 486 23,000  Level Albuquerque Center
Thu 02:13:35 PM 36.6642 -103.4697 167° South 427 491 23,000  Level Albuquerque Center
Thu 02:14:37 PM 36.5394 -103.4311 166° South 437 503 23,000  Level Albuquerque Center
Thu 02:15:39 PM 36.4192 -103.3958 167° South 439 505 23,000  Level Albuquerque Center
Thu 02:16:41 PM 36.3006 -103.3594 166° South 436 502 23,000  Level Albuquerque Center
Thu 02:17:43 PM 36.1839 -103.3253 167° South 428 493 23,000  Level Albuquerque Center
Thu 02:18:45 PM 36.0442 -103.2839 167° South 437 503 23,000  Level Albuquerque Center
Thu 02:19:46 PM 35.9253 -103.2497 167° South 435 501 23,000  Level Albuquerque Center
Thu 02:20:48 PM 35.8056 -103.2150 167° South 437 503 23,000  Level Albuquerque Center
Thu 02:21:50 PM 35.6858 -103.1803 167° South 436 502 23,000  Level Albuquerque Center
Thu 02:22:52 PM 35.5656 -103.1453 167° South 437 503 23,000  Level Albuquerque Center
Thu 02:23:54 PM 35.4467 -103.1106 167° South 435 501 23,000  Level Albuquerque Center
Thu 02:24:56 PM 35.3261 -103.0767 167° South 437 503 23,000  Level Albuquerque Center
Thu 02:25:58 PM 35.2056 -103.0406 166° South 439 505 23,000  Level Albuquerque Center
Thu 02:26:59 PM 35.0883 -103.0081 167° South 433 498 23,000  Level Albuquerque Center
Thu 02:28:01 PM 34.9536 -102.9694 167° South 425 489 23,000  Level Albuquerque Center
Thu 02:29:03 PM 34.8375 -102.9364 167° South 422 486 23,000  Level Albuquerque Center
Thu 02:30:05 PM 34.7175 -102.9028 167° South 431 496 23,000  Level Albuquerque Center
Thu 02:31:07 PM 34.5969 -102.8689 167° South 437 503 23,000  Level Albuquerque Center
Thu 02:32:08 PM 34.4864 -102.8247 162° South 435 501 23,000 -488 Level Albuquerque Center
Thu 02:33:10 PM 34.3944 -102.7228 138° Southeast 444 511 22,000 -1,694 Descending Albuquerque Center
Thu 02:34:12 PM 34.3083 -102.6183 135° Southeast 440 506 19,500 -2,661 Descending Albuquerque Center
Thu 02:35:14 PM 34.2097 -102.5028 136° Southeast 423 487 16,500 -2,419 Descending Albuquerque Center
Thu 02:36:16 PM 34.1428 -102.4239 136° Southeast 407 468 14,500 -2,049 Descending Albuquerque Center
Thu 02:37:17 PM 34.0661 -102.3342 136° Southeast 393 452 12,300 -2,188 Descending Albuquerque Center
Thu 02:37:41 PM 34.0242 -102.2850 136° Southeast 362 417 11,400 -1,588 Descending Fort Worth Center
Thu 02:38:25 PM 33.9761 -102.2347 139° Southeast 348 400 10,500 -1,180 Descending Fort Worth Center
Thu 02:38:42 PM 33.9578 -102.2186 144° Southeast 306 352 10,200 -1,100 Descending Fort Worth Center
Thu 02:39:25 PM 33.9139 -102.1686 137° Southeast 317 365 9,400 -1,182 Descending Fort Worth Center
Thu 02:39:48 PM 33.8917 -102.1497 145° Southeast 283 326 8,900 -1,400 Descending Fort Worth Center
Thu 02:40:25 PM 33.8536 -102.1078 138° Southeast 290 334 8,000 -1,309 Descending Fort Worth Center
Thu 02:40:43 PM 33.8353 -102.0919 144° Southeast 283 326 7,700 -1,200 Descending Fort Worth Center
Thu 02:41:25 PM 33.7933 -102.0444 137° Southeast 290 334 6,800 -1,167 Descending Fort Worth Center
Thu 02:41:55 PM 33.7608 -102.0178 146° Southeast 280 322 6,300 -1,100 Descending Fort Worth Center
Thu 02:42:25 PM 33.7350 -101.9867 135° Southeast 280 322 5,700 -984 Descending Fort Worth Center
Thu 02:42:56 PM 33.7067 -101.9625 145° Southeast 255 293 5,300 -900 Descending Fort Worth Center
Thu 02:43:25 PM 33.6847 -101.9339 133° Southeast 260 299 4,800 -689 Descending Fort Worth Center
Thu 02:43:57 PM 33.6625 -101.9128 142° Southeast 206 237 4,600 -600 Descending Fort Worth Center
Thu 02:44:25 PM 33.6614 -101.8853 93° East 191 220 4,200 -778 Descending Fort Worth Center
Thu 02:44:51 PM 33.6600 -101.8653 95° East 146 168 3,900 -800 Descending Fort Worth Center
Thu 02:45:25 PM 33.6631 -101.8356 83° East 159 183 3,400 -447 Descending Fort Worth Center
Thu 02:46:25 PM 33.6525 -101.7850 104° East 154 177 3,200 -200 Descending Fort Worth Center
Thu 02:51:00 PM 33.6460 -101.7850 279° West  Level FlightAware Approximate
Thu 02:58:00 PM 33.6500 -101.8167 279° West  Level FlightAware Approximate
Thu 02:59:00 PM 33.6637 -101.8206 279° West  Level Estimated
Thu 03:00:00 PM 33.6637 -101.8206 279° West  Level Estimated
Thu 03:01:00 PM 33.6637 -101.8206 279° West  Level Estimated
Thu 03:02:00 PM 33.6637 -101.8206 279° West  Level Estimated
Thu 03:03:00 PM 33.6637 -101.8206 279° West  Level Estimated
Thu 03:04:00 PM 33.6637 -101.8206 279° West  Level Estimated
Thu 03:05:00 PM 33.6637 -101.8206 279° West  Level Estimated
Thu 03:06:00 PM 33.6637 -101.8206 279° West  Level Estimated

Login

Don't have an account? Register now (free) for customized features, flight alerts, and more!